You are not logged in, Click here to log in
ICAO: ZGGG Country: 中國廣東省省會廣州市
Latitude: 23.3959 Longitude: 113.308
Total Arrivals: 63 Total Departures: 73
Latest Arrival: MU5309 (ZSSS-ZGGG)CHU. CHUHAO Latest Departure: CZ3417 (ZGGG-ZUUU)CHU. CHUHAO
Scenery:
METAR : ZGGG 220330Z 02008G13MPS 350V060 CAVOK 29/10 Q1014 NOSIG

廣州白雲國際機場CAN